• Join FlightAware (Why Join?)
  • Login
  • US Flag 
10:19AM EDT


 

Airport Tracker/Info


-or-


 

Live Flight TrackerFlight Track Log ✈ ASQ5740 ✈ 03-Jun-2013 ✈ KCHS - KIAD

Flight Track Log - Related Links

Times and Time Zones

All times are in EDT time to prevent confusion due to time zone crossing. See the ASQ5740 flight status page for this flight to view local times or setup timezone preferences in your user account.

Time Position Orientation Groundspeed Altitude Reporting Facility
EDT Latitude Longitude Course Direction KTS MPH feet Rate Location/Type
02:52PM 32.9322 -80.0586 13° North 207 238 3,600  Level Jacksonville Center
02:53PM 33.0067 -80.0267 20° North 270 311 5,400 2,100 Climbing Jacksonville Center
02:54PM 33.2729 -79.9221 North  Level FlightAware Approximate
02:54PM 33.0750 -80.0072 13° North 275 316 7,800  Level Jacksonville Center
02:55PM 33.3675 -79.8832 North  Level FlightAware Approximate
02:55PM 33.1517 -79.9797 17° North 280 322 10,100  Level Jacksonville Center
02:56PM 33.4665 -79.8620 13° North  Level FlightAware Approximate
02:56PM 33.2342 -79.9425 21° North 293 337 11,700  Level Jacksonville Center
02:57PM 33.5643 -79.8340 13° North  Level FlightAware Approximate
02:57PM 33.3208 -79.8897 27° Northeast 319 367 13,100  Level Jacksonville Center
02:58PM 33.4092 -79.8394 25° Northeast 339 390 15,200 1,800 Climbing Jacksonville Center
02:59PM 33.5022 -79.7989 20° North 344 396 16,700 1,500 Climbing Jacksonville Center
03:00PM 33.6042 -79.7881 North 344 396 18,200 1,200 Climbing Jacksonville Center
03:01PM 33.7081 -79.7669 10° North 364 419 19,200 960 Climbing Jacksonville Center
03:02PM 33.8139 -79.7456 10° North 375 432 20,200 960 Climbing Jacksonville Center
03:03PM 33.9217 -79.7217 10° North 380 437 21,200 960 Climbing Jacksonville Center
03:04PM 34.0297 -79.6978 10° North 391 450 22,200 840 Climbing Jacksonville Center
03:05PM 34.1417 -79.6761 North 391 450 22,900 600 Climbing Jacksonville Center
03:06PM 34.2597 -79.6364 16° North 402 463 23,500 540 Climbing Jacksonville Center
03:08PM 34.4253 -79.5597 21° North 425 489 24,300 420 Climbing Washington Center
03:09PM 34.5400 -79.4972 24° Northeast 437 503 24,700 480 Climbing Washington Center
03:10PM 34.6586 -79.4375 22° Northeast 448 516 25,300 540 Climbing Washington Center
03:11PM 34.7756 -79.3722 25° Northeast 453 521 25,800 480 Climbing Washington Center
03:12PM 34.8964 -79.3094 23° Northeast 453 521 26,300 480 Climbing Washington Center
03:13PM 35.0172 -79.2464 23° Northeast 463 533 26,800 300 Climbing Washington Center
03:14PM 35.1361 -79.1833 23° Northeast 463 533 27,000 60 Climbing Washington Center
03:15PM 35.2633 -79.1178 23° Northeast 468 539 27,000  Level Washington Center
03:16PM 35.3883 -79.0519 23° Northeast 480 552 27,000  Level Washington Center
03:17PM 35.5114 -78.9833 24° Northeast 480 552 27,000  Level Washington Center
03:18PM 35.6278 -78.9192 24° Northeast 470 541 27,000  Level Washington Center
03:19PM 35.7442 -78.8600 22° Northeast 458 527 27,000  Level Washington Center
03:20PM 35.8672 -78.7908 24° Northeast 446 513 27,000  Level Washington Center
03:21PM 35.9772 -78.7311 24° Northeast 441 507 27,000  Level Washington Center
03:22PM 36.0811 -78.6683 26° Northeast 429 494 27,000  Level Washington Center
03:23PM 36.1889 -78.6083 24° Northeast 424 488 27,000  Level Washington Center
03:24PM 36.2969 -78.5481 24° Northeast 424 488 27,000  Level Washington Center
03:25PM 36.4028 -78.4875 25° Northeast 424 488 27,000  Level Washington Center
03:26PM 36.5086 -78.4242 26° Northeast 424 488 27,000  Level Washington Center
03:27PM 36.6164 -78.3633 24° Northeast 419 482 27,000  Level Washington Center
03:28PM 36.7200 -78.3022 25° Northeast 419 482 27,000  Level Washington Center
03:29PM 36.8236 -78.2411 25° Northeast 414 476 27,000 -420 Level Washington Center
03:30PM 36.9314 -78.1797 24° Northeast 414 476 26,200 -900 Descending Washington Center
03:31PM 37.0392 -78.1183 24° Northeast 414 476 25,200 -1,020 Descending Washington Center
03:32PM 37.1364 -78.0592 26° Northeast 401 461 24,200 -1,020 Descending Washington Center
03:33PM 37.2375 -78.0050 23° Northeast 395 455 23,200 -1,020 Descending Washington Center
03:34PM 37.3306 -77.9450 27° Northeast 383 441 22,200 -600 Descending Washington Center
03:35PM 37.4233 -77.8931 24° Northeast 373 429 22,000 -120 Descending Washington Center
03:36PM 37.5161 -77.8356 26° Northeast 367 422 22,000  Level Washington Center
03:37PM 37.6089 -77.7808 25° Northeast 362 417 22,000 -660 Level Washington Center
03:38PM 37.7081 -77.7286 23° Northeast 362 417 20,700 -1,680 Descending Washington Center
03:39PM 37.7661 -77.6172 57° Northeast 362 417 18,700 -2,040 Descending Washington Center
03:40PM 37.8483 -77.5642 27° Northeast 336 387 16,600 -1,380 Descending Washington Center
03:41PM 37.9403 -77.5614 North 317 365 16,000 -300 Descending Washington Center
03:42PM 38.0278 -77.5556 North 312 359 16,000  Level Washington Center
03:43PM 38.1028 -77.5631 356° North 307 353 16,000 -240 Level Washington Center
03:44PM 38.1372 -77.6350 301° West 247 284 15,600 -720 Descending Washington Center
03:45PM 38.1028 -77.6975 235° Southwest 184 212 14,600 -1,020 Descending Washington Center
03:46PM 38.0314 -77.7114 189° South 169 194 13,600 -840 Descending Washington Center
03:47PM 37.9586 -77.7092 179° South 200 230 13,000 -360 Descending Washington Center
03:48PM 37.8958 -77.7153 184° South 232 267 13,000  Level Washington Center
03:49PM 37.8358 -77.6822 156° South 239 275 13,000 -360 Level Washington Center
03:50PM 37.8417 -77.5981 85° East 197 227 12,400 -840 Descending Washington Center
03:51PM 37.9172 -77.5556 24° Northeast 184 212 11,400 -1,020 Descending Washington Center
03:52PM 37.9972 -77.5181 20° North 235 270 10,400 -720 Descending Washington Center
03:53PM 38.0769 -77.4911 15° North 262 302 10,000 -240 Descending Washington Center
03:54PM 38.1567 -77.4586 18° North 284 327 10,000 -360 Level Washington Center
03:55PM 38.2381 -77.4503 North 290 334 9,400 -780 Descending Washington Center
03:56PM 38.3153 -77.4519 359° North 285 328 8,500 -780 Descending Washington Center
03:57PM 38.3778 -77.4536 359° North 254 292 7,900 -840 Descending Washington Center
03:58PM 38.4339 -77.4578 357° North 222 255 6,900 -960 Descending Washington Center
03:59PM 38.4839 -77.4617 357° North 198 228 6,100 -540 Descending Washington Center
04:00PM 38.5361 -77.4628 359° North 184 212 5,900 -60 Descending Washington Center
04:01PM 38.5839 -77.4642 359° North 179 206 6,000 -480 Climbing Washington Center
04:01PM 38.6333 -77.4667 358° North 179 206 5,100 -660 Descending Potomac TRACON
04:02PM 38.6667 -77.4667 360° North 173 199 5,000 -240 Descending Potomac TRACON
04:03PM 38.7167 -77.4667 360° North 180 207 4,700 -720 Descending Potomac TRACON
04:04PM 38.7667 -77.4667 360° North 164 189 3,500 -960 Descending Potomac TRACON
04:05PM 38.8167 -77.4667 360° North 148 170 2,800 -780 Descending Potomac TRACON
04:06PM 38.8500 -77.4667 360° North 147 169 2,100 -720 Descending Potomac TRACON